Time;durP1;ratioP1;P1;durP2;ratioP2;P2;SDS_P1;SDS_P2;PMS_P1;PMS_P2;Temp;Humidity;BMP_temperature;BMP_pressure;BME280_temperature;BME280_humidity;BME280_pressure;Samples;Min_cycle;Max_cycle;Signal;HPM_P1;HPM_P2
2022/12/14 00:03:31;;;;;;;0.70;0.70;;;;;;;-1.47;64.99;100336.66;18498796;32;20100;-58
2022/12/14 00:13:36;;;;;;;0.70;0.70;;;;;;;-2.26;66.94;100338.94;18499903;32;20111;-58
2022/12/14 00:23:40;;;;;;;0.73;0.73;;;;;;;-2.50;68.28;100346.28;18498686;32;20148;-58
2022/12/14 00:33:45;;;;;;;1.00;1.00;;;;;;;-2.20;67.20;100348.59;18497187;32;20475;-58
2022/12/14 00:43:48;;;;;;;3.37;3.20;;;;;;;-2.46;68.66;100353.31;18471689;32;20121;-58
2022/12/14 00:53:53;;;;;;;0.50;0.50;;;;;;;-1.85;67.83;100349.41;18433443;32;20085;-58
2022/12/14 01:04:15;;;;;;;0.70;0.70;;;;;;;-1.38;66.76;100360.91;18432515;32;20120;-59
2022/12/14 01:14:21;;;;;;;0.90;0.90;;;;;;;-1.19;65.92;100347.25;18432959;32;20077;-58
2022/12/14 01:24:24;;;;;;;0.60;0.60;;;;;;;-1.19;66.77;100362.63;18431117;32;20111;-58
2022/12/14 01:34:29;;;;;;;0.70;0.70;;;;;;;-0.77;65.70;100364.44;18431619;32;20122;-58
2022/12/14 01:44:53;;;;;;;0.73;0.73;;;;;;;-0.70;65.83;100357.06;18431476;32;20440;-58
2022/12/14 01:55:00;;;;;;;0.70;0.70;;;;;;;-0.93;66.46;100344.97;18431188;32;20401;-58
2022/12/14 02:05:06;;;;;;;0.43;0.43;;;;;;;-1.13;67.21;100325.34;18430547;32;20085;-58
2022/12/14 02:15:12;;;;;;;0.57;0.57;;;;;;;-1.03;66.99;100323.19;18430140;32;20520;-58
2022/12/14 02:25:45;;;;;;;0.60;0.60;;;;;;;-0.80;66.41;100313.91;18429054;32;20101;-58
2022/12/14 02:35:58;;;;;;;0.50;0.50;;;;;;;-1.01;67.18;100319.88;18428890;32;20485;-58
2022/12/14 02:46:11;;;;;;;0.80;0.80;;;;;;;-0.67;66.41;100314.44;18428991;32;20115;-58
2022/12/14 02:56:18;;;;;;;2.37;1.27;;;;;;;-0.65;66.28;100288.03;18430805;32;20111;-59
2022/12/14 03:06:25;;;;;;;22.63;5.10;;;;;;;-0.48;66.24;100283.59;18434879;32;20175;-58
2022/12/14 03:16:33;;;;;;;5.80;2.20;;;;;;;-0.14;65.82;100278.97;18435911;32;20365;-58
2022/12/14 03:26:39;;;;;;;0.60;0.60;;;;;;;-0.03;65.91;100281.94;18435903;32;20092;-58
2022/12/14 03:36:55;;;;;;;0.63;0.63;;;;;;;-0.06;66.28;100264.72;18436755;32;20410;-58
2022/12/14 03:47:04;;;;;;;0.70;0.70;;;;;;;-0.12;65.99;100238.84;18435555;32;20158;-58
2022/12/14 03:57:14;;;;;;;2.07;1.97;;;;;;;0.24;65.09;100233.34;18435052;32;20339;-58
2022/12/14 04:07:22;;;;;;;0.80;0.80;;;;;;;-0.18;65.91;100207.81;18434549;32;20155;-59
2022/12/14 04:27:55;;;;;;;1.13;1.13;;;;;;;0.51;64.91;100208.62;18433222;32;20692;-58
2022/12/14 04:38:05;;;;;;;0.87;0.87;;;;;;;0.71;64.50;100218.72;18433390;32;20758;-58
2022/12/14 04:48:13;;;;;;;1.70;1.63;;;;;;;0.54;65.19;100219.00;18432145;32;20121;-59
2022/12/14 04:58:20;;;;;;;1.65;1.17;;;;;;;0.75;64.89;100235.97;18433314;32;20396;-58
2022/12/14 05:08:34;;;;;;;0.75;0.75;;;;;;;0.72;65.38;100212.75;18432975;32;20365;-58
2022/12/14 05:18:39;;;;;;;1.30;1.30;;;;;;;0.99;64.49;100181.97;18432223;32;20092;-58
2022/12/14 05:28:42;;;;;;;0.80;0.80;;;;;;;0.94;64.93;100181.81;18432075;32;20442;-59
2022/12/14 05:38:53;;;;;;;0.80;0.80;;;;;;;1.10;64.77;100159.19;18433201;32;20133;-58
2022/12/14 05:48:56;;;;;;;0.60;0.60;;;;;;;0.18;67.53;100175.75;18431618;32;20097;-58
2022/12/14 05:59:01;;;;;;;0.60;0.60;;;;;;;-0.40;69.44;100165.06;18431038;32;20093;-58
2022/12/14 06:09:06;;;;;;;0.70;0.70;;;;;;;-1.13;71.84;100155.37;18487438;32;20096;-58
2022/12/14 06:19:11;;;;;;;0.70;0.70;;;;;;;-0.64;70.43;100163.31;18437475;32;20093;-58
2022/12/14 06:29:16;;;;;;;0.70;0.70;;;;;;;-0.32;68.96;100144.03;18450453;32;20093;-58
2022/12/14 06:39:21;;;;;;;0.60;0.60;;;;;;;-0.11;67.40;100143.06;18468059;32;20076;-58
2022/12/14 06:49:24;;;;;;;0.70;0.70;;;;;;;-0.56;69.11;100139.69;18401830;32;20089;-58
2022/12/14 06:59:29;;;;;;;0.60;0.60;;;;;;;-0.45;69.60;100119.59;18372498;32;20101;-59
2022/12/14 07:09:32;;;;;;;0.73;0.73;;;;;;;0.46;66.07;100117.66;18372227;32;20115;-58
2022/12/14 07:19:37;;;;;;;0.80;0.80;;;;;;;-0.08;66.93;100084.16;18372006;32;20171;-58
2022/12/14 07:29:40;;;;;;;0.63;0.63;;;;;;;0.45;65.29;100093.69;18477667;32;20129;-58
2022/12/14 07:39:45;;;;;;;0.70;0.70;;;;;;;-0.23;66.44;100097.31;18447137;32;20084;-58
2022/12/14 07:49:48;;;;;;;1.00;1.00;;;;;;;-0.17;66.42;100096.66;18429492;32;20093;-59
2022/12/14 07:59:52;;;;;;;0.85;0.85;;;;;;;0.78;63.83;100105.91;18433891;32;20166;-59
2022/12/14 08:10:00;;;;;;;0.70;0.70;;;;;;;0.44;63.78;100102.22;18446146;32;20092;-60
2022/12/14 08:20:06;;;;;;;0.80;0.80;;;;;;;0.26;64.82;100110.16;18462025;32;20441;-58
2022/12/14 08:30:10;;;;;;;3.60;1.57;;;;;;;-0.44;66.08;100123.91;18421928;32;183321;-58
2022/12/14 08:40:15;;;;;;;0.70;0.70;;;;;;;-0.85;66.81;100129.19;18424205;32;20105;-58
2022/12/14 08:50:18;;;;;;;0.67;0.67;;;;;;;-0.67;65.98;100110.22;18483465;32;20124;-58
2022/12/14 09:00:23;;;;;;;0.60;0.60;;;;;;;-0.66;66.04;100099.13;18481403;32;20162;-58
2022/12/14 09:10:27;;;;;;;0.67;0.67;;;;;;;-0.26;65.71;100104.00;18423139;32;20132;-58
2022/12/14 09:20:32;;;;;;;0.77;0.77;;;;;;;0.51;63.78;100080.19;18430357;32;20089;-58
2022/12/14 09:30:35;;;;;;;0.60;0.60;;;;;;;-0.10;65.66;100078.09;18430229;32;20097;-58
2022/12/14 09:40:39;;;;;;;0.80;0.80;;;;;;;-0.45;66.22;100064.84;18430289;32;20165;-58
2022/12/14 09:50:43;;;;;;;0.60;0.60;;;;;;;0.25;63.75;100046.78;18429674;32;20162;-58
2022/12/14 10:00:50;;;;;;;0.80;0.80;;;;;;;-0.59;66.11;100036.13;18429662;32;20129;-58
2022/12/14 10:11:02;;;;;;;0.60;0.60;;;;;;;-0.42;65.05;100031.66;18429289;32;20080;-58
2022/12/14 10:21:12;;;;;;;0.60;0.60;;;;;;;-0.36;65.83;100025.88;18424690;32;20103;-58
2022/12/14 10:31:26;;;;;;;0.60;0.60;;;;;;;-0.31;64.96;100014.06;18427469;32;20235;-58
2022/12/14 10:41:38;;;;;;;0.70;0.70;;;;;;;0.17;63.35;99987.50;18364617;32;20430;-58
2022/12/14 10:51:43;;;;;;;0.63;0.63;;;;;;;0.39;63.15;99968.53;18363663;32;20722;-58
2022/12/14 11:01:49;;;;;;;0.90;0.90;;;;;;;0.15;63.81;99953.19;18411468;32;20125;-60
2022/12/14 11:11:58;;;;;;;0.80;0.80;;;;;;;0.71;61.97;99962.63;18488192;32;20649;-60
2022/12/14 11:22:12;;;;;;;0.53;0.53;;;;;;;0.71;62.41;99936.09;18451540;32;20108;-60
2022/12/14 11:32:24;;;;;;;0.70;0.70;;;;;;;0.43;62.79;99927.53;18433415;32;20187;-60
2022/12/14 11:42:29;;;;;;;0.60;0.60;;;;;;;0.35;63.20;99911.88;18447304;32;20107;-60
2022/12/14 11:52:41;;;;;;;0.70;0.70;;;;;;;1.03;60.53;99889.88;18493344;32;20092;-60
2022/12/14 12:02:50;;;;;;;0.70;0.70;;;;;;;0.46;62.18;99881.38;18434493;32;20092;-60
2022/12/14 12:12:57;;;;;;;0.70;0.70;;;;;;;0.03;63.06;99866.41;18423051;32;20105;-60
2022/12/14 12:23:06;;;;;;;0.83;0.83;;;;;;;-0.16;63.92;99868.38;18388033;32;20377;-60
2022/12/14 12:33:29;;;;;;;0.80;0.80;;;;;;;0.43;62.36;99850.47;18438464;32;20158;-58
2022/12/14 12:43:36;;;;;;;0.70;0.70;;;;;;;0.40;62.17;99834.16;18440850;32;20357;-57
2022/12/14 12:53:42;;;;;;;0.52;0.52;;;;;;;0.64;62.03;99816.84;18455829;32;20100;-58
2022/12/14 13:03:50;;;;;;;0.50;0.50;;;;;;;0.64;61.29;99802.31;18480372;32;20108;-59
2022/12/14 13:13:56;;;;;;;0.70;0.70;;;;;;;0.28;61.85;99792.69;18465379;32;20369;-58
2022/12/14 13:24:01;;;;;;;7.03;6.37;;;;;;;0.82;60.08;99766.00;18467927;32;20144;-60
2022/12/14 13:34:28;;;;;;;0.77;0.77;;;;;;;0.13;62.13;99782.84;18462322;32;20177;-60
2022/12/14 13:44:55;;;;;;;0.53;0.53;;;;;;;0.07;62.96;99768.12;18483869;32;20179;-60
2022/12/14 13:54:59;;;;;;;0.80;0.80;;;;;;;-0.13;63.15;99758.97;18483644;32;20494;-60
2022/12/14 14:05:47;;;;;;;0.63;0.63;;;;;;;0.40;62.00;99722.84;18455738;32;20109;-59
2022/12/14 14:15:54;;;;;;;0.50;0.50;;;;;;;0.10;63.88;99728.84;18242265;32;20413;-60
2022/12/14 14:26:28;;;;;;;0.80;0.80;;;;;;;0.03;63.53;99702.16;18274972;32;20117;-60
2022/12/14 14:36:34;;;;;;;0.50;0.50;;;;;;;-0.03;63.85;99679.75;18255828;32;20461;-60
2022/12/14 14:46:41;;;;;;;0.60;0.60;;;;;;;0.68;62.76;99695.34;18324424;32;20141;-60
2022/12/14 14:56:47;;;;;;;0.60;0.60;;;;;;;0.56;63.19;99693.31;18427902;32;20107;-60
2022/12/14 15:06:54;;;;;;;0.60;0.60;;;;;;;0.87;62.00;99694.16;18433470;32;20376;-60
2022/12/14 15:17:11;;;;;;;0.63;0.63;;;;;;;1.26;60.00;99691.69;18487434;32;20099;-60
2022/12/14 15:27:23;;;;;;;0.82;0.82;;;;;;;0.11;63.21;99675.00;18425673;32;20176;-60
2022/12/14 15:37:30;;;;;;;1.55;1.45;;;;;;;0.76;61.42;99669.84;18374448;32;20116;-60
2022/12/14 15:47:33;;;;;;;0.80;0.80;;;;;;;0.94;60.89;99674.63;18424823;32;20129;-61
2022/12/14 15:57:38;;;;;;;0.80;0.80;;;;;;;0.81;61.46;99678.56;18432604;32;20154;-60
2022/12/14 16:07:43;;;;;;;0.60;0.60;;;;;;;0.64;62.54;99684.12;18434395;32;20455;-60
2022/12/14 16:17:48;;;;;;;0.80;0.80;;;;;;;0.10;64.33;99668.13;18433670;32;20089;-60
2022/12/14 16:27:52;;;;;;;0.55;0.55;;;;;;;0.67;62.96;99640.56;18430754;32;20347;-60
2022/12/14 16:38:05;;;;;;;0.57;0.57;;;;;;;0.97;62.08;99613.00;18427808;32;20076;-60
2022/12/14 16:48:14;;;;;;;0.65;0.65;;;;;;;1.27;60.92;99611.97;18430386;32;20121;-60
2022/12/14 16:58:18;;;;;;;0.77;0.77;;;;;;;1.64;59.35;99611.94;18429791;32;20136;-60
2022/12/14 17:08:22;;;;;;;1.08;1.05;;;;;;;1.92;58.41;99607.38;18425610;32;20092;-60
2022/12/14 17:18:29;;;;;;;0.97;0.97;;;;;;;0.60;62.48;99607.81;18425214;32;20100;-60
2022/12/14 17:28:33;;;;;;;0.75;0.75;;;;;;;0.40;63.95;99603.06;18430464;32;20559;-60
2022/12/14 17:38:38;;;;;;;1.58;1.55;;;;;;;1.00;62.21;99617.34;18426248;32;20109;-60
2022/12/14 17:48:41;;;;;;;1.02;1.02;;;;;;;1.88;59.81;99610.69;18415981;32;20092;-60
2022/12/14 17:58:46;;;;;;;0.65;0.65;;;;;;;1.86;59.23;99608.12;18420520;32;20123;-60
2022/12/14 18:08:49;;;;;;;0.95;0.93;;;;;;;1.36;61.01;99608.75;18425391;32;20124;-60
2022/12/14 18:18:54;;;;;;;0.80;0.80;;;;;;;1.60;60.50;99568.94;18415924;32;20402;-60
2022/12/14 18:28:58;;;;;;;0.90;0.90;;;;;;;1.99;59.15;99570.62;18412100;32;20097;-60
2022/12/14 18:39:04;;;;;;;0.70;0.70;;;;;;;2.53;57.86;99567.28;18402582;32;20112;-60
2022/12/14 18:49:07;;;;;;;1.30;1.23;;;;;;;2.13;58.87;99551.97;18429559;32;20157;-60
2022/12/14 18:59:12;;;;;;;0.60;0.60;;;;;;;1.96;59.39;99542.22;18416997;32;20089;-60
2022/12/14 19:09:15;;;;;;;0.70;0.70;;;;;;;2.45;57.85;99549.97;18427266;32;20081;-60
2022/12/14 19:19:20;;;;;;;0.60;0.60;;;;;;;2.69;57.65;99550.34;18430036;32;20476;-60
2022/12/14 19:29:28;;;;;;;0.60;0.60;;;;;;;2.77;57.78;99528.16;18429598;32;20188;-60
2022/12/14 19:39:32;;;;;;;0.60;0.60;;;;;;;2.74;58.20;99528.97;18428903;32;20335;-60
2022/12/14 19:49:36;;;;;;;0.90;0.90;;;;;;;2.81;57.99;99519.59;18397763;32;20093;-60
2022/12/14 19:59:41;;;;;;;0.70;0.70;;;;;;;2.85;57.78;99516.25;18434325;32;20537;-60
2022/12/14 20:09:45;;;;;;;0.77;0.77;;;;;;;2.89;58.07;99507.72;18435940;32;20093;-60
2022/12/14 20:19:50;;;;;;;1.87;1.80;;;;;;;2.81;58.23;99504.16;18432426;32;20119;-60
2022/12/14 20:29:53;;;;;;;0.60;0.60;;;;;;;2.76;58.92;99508.38;18440158;32;20097;-60
2022/12/14 20:39:58;;;;;;;0.70;0.70;;;;;;;2.74;59.37;99479.12;18430451;32;20455;-60
2022/12/14 20:50:01;;;;;;;0.98;0.98;;;;;;;2.68;59.59;99474.75;18429890;32;20433;-60
2022/12/14 21:00:08;;;;;;;0.60;0.60;;;;;;;2.71;59.40;99468.78;18431527;32;20108;-60
2022/12/14 21:10:11;;;;;;;1.17;1.15;;;;;;;2.64;59.48;99458.34;18431019;32;20084;-60
2022/12/14 21:20:15;;;;;;;0.65;0.65;;;;;;;2.39;60.57;99454.53;18373871;32;20089;-60
2022/12/14 21:30:19;;;;;;;0.90;0.90;;;;;;;2.69;59.68;99478.19;18364519;32;20402;-60
2022/12/14 21:50:47;;;;;;;1.08;1.08;;;;;;;2.83;59.10;99484.41;18367137;32;20080;-60
2022/12/14 22:00:52;;;;;;;0.55;0.55;;;;;;;2.59;59.57;99488.38;18367188;32;20123;-60
2022/12/14 22:10:55;;;;;;;0.70;0.70;;;;;;;2.42;60.38;99461.47;18368018;32;20093;-60
2022/12/14 22:21:03;;;;;;;1.05;1.05;;;;;;;2.94;58.83;99473.38;18371815;32;20137;-60
2022/12/14 22:31:07;;;;;;;0.77;0.77;;;;;;;3.00;58.58;99481.22;18382904;32;20118;-60
2022/12/14 22:41:13;;;;;;;0.65;0.65;;;;;;;3.21;57.88;99477.19;18435701;32;20135;-60
2022/12/14 22:51:16;;;;;;;1.52;1.45;;;;;;;2.91;57.94;99472.50;18463972;32;20112;-60
2022/12/14 23:01:21;;;;;;;1.98;1.87;;;;;;;3.05;58.05;99493.31;18424836;32;20093;-60
